W K Kellogg Airport
KBTL : now visible

Airfield :











YOU CAN JOIN US ON...

 
LOGIN :

Register | Disclaimer

   EN    FR    IT 

 









Legend :    VFR   Marginal VFR   IFR   Intensive IFR   Very Intensive IFR
Visi :
Ceiling :
>= 8 km
>= 3000ft
5 to 8 km
1000 to 3000 ft
1500m to 5 km
500 to 1000 ft
800 to 1500m
200 to 500 ft
< 800m
< 200 ft
Symbols :   Thunderstorms  Fog  Heavy snow  Heavy precipitations  Wind > 20 kt






- Airport Elevation : 952 ft


KBTL - W K Kellogg

CURRENT METAR :
  • 212000Z 31010KT 10SM SCT027 BKN037 05/M04 A3004 RMK AO2 T00501039

EXPIRED METARs :
  • 211953Z 29012G21KT 10SM BKN027 05/M04 A3004 RMK AO2 SNE50 SLP180 P0000 T00501039
  • 211914Z 32010KT 10SM -SN SCT031 SCT042 BKN050 04/M02 A3005 RMK AO2 P0000 T00391017
  • 211858Z 33012G20KT 1 1/2SM -SN BKN032 BKN042 BKN048 04/M03 A3006 RMK AO2 P0000 T00391033
  • 211853Z 33011G17KT 9SM -SN SCT033 BKN042 BKN050 04/M04 A3005 RMK AO2 SLP186 P0000 T00441039
  • 211809Z 34009KT 9SM -SN FEW018 SCT027 BKN034 03/M02 A3007 RMK AO2 P0000 T00331017
  • 211801Z 34008KT 2SM -SN FEW020 BKN030 BKN050 03/M01 A3006 RMK AO2 P0000 T00331011
  • 211746Z 28007KT 2SM -SN FEW030 BKN037 OVC055 03/M05 A3007 RMK AO2 SNB46 P0000 T00281050

TAF KBTL
Valid from the 21 at 18:00 until the 22 at 18:00 UTC


211740Z 2118/2218 32010KT P6SM VCSH BKN035
TEMPO 2118/2120 3SM -SHSN BKN025
FM220200 30005KT P6SM SCT050
FM221200 28012KT P6SM SCT120
KZAU FIR / North America



MET'MAP, your aeronautical weather chart ! - Copyright ORBIFLY December 2007 - Disclaimer

ORBIFLY MET'MAP TEAM :

Programming & Development : Alexandra Zaïnal
Concept & original design : Baudouin d'Aumeries
Assistance for programming : Marc-Olivier Méhu
Technical & hardware support : Manuel Goepfert

Contact : metmap@orbifly.com




SOURCES & CREDITS :

   NOAA       Earth
Advisory